Time;durP1;ratioP1;P1;durP2;ratioP2;P2;SDS_P1;SDS_P2;PMS_P1;PMS_P2;Temp;Humidity;BMP_temperature;BMP_pressure;BME280_temperature;BME280_humidity;BME280_pressure;Samples;Min_cycle;Max_cycle;Signal;HPM_P1;HPM_P2
2022/01/01 10:37:48;;;;;;;35.13;16.45;;;;;;;16.87;61.00;101955.81;6005386;23;96939;-76
2022/01/01 15:43:21;;;;;;;30.80;13.50;;;;;;;17.71;56.97;101969.06;6011363;23;97437;-74
2022/01/01 15:45:50;;;;;;;28.45;14.32;;;;;;;17.72;57.44;101954.72;5999360;23;97448;-73
2022/01/01 15:48:17;;;;;;;30.85;13.15;;;;;;;17.77;56.68;101962.56;6000652;23;99223;-73
2022/01/01 15:50:45;;;;;;;40.10;15.38;;;;;;;17.74;56.68;101971.56;6000755;23;98035;-73
2022/01/01 15:53:12;;;;;;;29.20;14.35;;;;;;;17.67;56.96;101967.44;6001789;23;96634;-75
2022/01/01 15:55:46;;;;;;;33.33;13.95;;;;;;;17.76;56.44;101959.00;5999947;23;97126;-73
2022/01/01 15:58:18;;;;;;;34.83;13.65;;;;;;;17.88;56.44;101962.91;6002302;23;99203;-73
2022/01/01 16:00:47;;;;;;;29.40;13.98;;;;;;;17.88;56.02;101962.91;5999730;23;98751;-74
2022/01/01 16:03:21;;;;;;;33.58;15.73;;;;;;;17.80;56.28;101976.63;6001664;23;96741;-74
2022/01/01 16:05:51;;;;;;;30.52;14.02;;;;;;;17.68;56.72;101979.88;6001958;23;96702;-74
2022/01/01 16:08:20;;;;;;;29.50;13.95;;;;;;;17.37;57.03;101979.50;5999358;23;100340;-73
2022/01/01 16:10:49;;;;;;;30.75;14.43;;;;;;;17.53;57.22;101976.03;5999989;23;98093;-73
2022/01/01 16:13:16;;;;;;;32.72;14.93;;;;;;;17.71;56.80;101979.75;6001724;23;96956;-73
2022/01/01 16:15:50;;;;;;;29.88;14.30;;;;;;;17.76;56.20;101976.84;6004292;23;97659;-73
2022/01/01 16:18:18;;;;;;;30.73;13.73;;;;;;;17.61;56.48;101986.44;6001418;23;98857;-72
2022/01/01 16:20:48;;;;;;;34.05;14.88;;;;;;;17.60;56.84;101984.66;6001018;23;99430;-72
2022/01/01 16:23:16;;;;;;;34.30;15.25;;;;;;;17.65;56.50;101979.16;6000760;23;97279;-73
2022/01/01 16:25:43;;;;;;;31.10;13.95;;;;;;;17.69;56.42;101983.41;6002545;23;96966;-72
2022/01/01 16:28:12;;;;;;;41.17;14.25;;;;;;;17.74;56.11;101982.25;6002209;23;99037;-71
2022/01/01 16:30:40;;;;;;;30.52;14.07;;;;;;;17.76;55.90;101980.41;6001094;23;98901;-73
2022/01/01 16:33:14;;;;;;;27.45;13.63;;;;;;;17.69;56.31;101978.94;5999338;23;96850;-73
2022/01/01 16:35:45;;;;;;;29.58;12.90;;;;;;;17.79;55.46;101985.59;6002048;23;97208;-75
2022/01/01 16:38:12;;;;;;;26.88;13.75;;;;;;;17.64;56.23;101983.63;6002398;23;99118;-74
2022/01/01 16:40:46;;;;;;;27.90;13.48;;;;;;;17.60;56.72;101987.31;6001099;23;99345;-72
2022/01/01 16:43:16;;;;;;;31.90;13.98;;;;;;;17.57;56.15;101986.63;6000843;23;97273;-74
2022/01/01 16:45:51;;;;;;;26.27;12.05;;;;;;;17.54;56.12;101988.47;6002029;23;97221;-74
2022/01/01 16:48:22;;;;;;;24.50;12.40;;;;;;;17.38;56.31;101997.25;5998776;23;99341;-73
2022/01/01 16:50:54;;;;;;;24.65;12.07;;;;;;;17.62;56.08;101990.84;6001892;23;99101;-72
2022/01/01 16:53:23;;;;;;;23.27;12.63;;;;;;;17.65;55.56;101988.03;6002615;23;97048;-75
2022/01/01 16:55:52;;;;;;;27.98;12.90;;;;;;;17.80;55.32;101990.00;6002173;23;96632;-73
2022/01/01 16:58:18;;;;;;;28.83;12.18;;;;;;;17.70;55.48;101980.69;5999822;23;99797;-74
2022/01/01 17:00:51;;;;;;;26.42;11.80;;;;;;;17.53;55.75;101972.50;6001183;23;99398;-73
2022/01/01 17:03:26;;;;;;;33.53;12.48;;;;;;;17.54;55.97;101979.59;5999896;23;96684;-72
2022/01/01 17:05:54;;;;;;;28.70;10.93;;;;;;;17.52;56.22;101979.66;6002180;23;96691;-74
2022/01/01 17:08:20;;;;;;;26.63;11.93;;;;;;;17.53;55.49;101985.88;6002387;23;99367;-72
2022/01/01 17:10:47;;;;;;;27.30;11.13;;;;;;;17.65;55.38;101985.38;6001186;23;99713;-74
2022/01/01 17:13:14;;;;;;;27.02;11.57;;;;;;;17.52;55.62;101992.19;5999420;23;96633;-73
2022/01/01 17:15:47;;;;;;;25.85;11.05;;;;;;;17.78;54.73;101993.69;6000259;23;97350;-72
2022/01/01 17:18:26;;;;;;;26.52;10.20;;;;;;;17.86;54.41;101984.38;5999678;23;98905;-74
2022/01/01 17:20:56;;;;;;;23.45;11.27;;;;;;;18.03;53.95;101980.06;6001258;23;97734;-74
2022/01/01 17:23:30;;;;;;;21.92;11.20;;;;;;;17.90;54.12;101972.59;5999971;23;97119;-74
2022/01/01 17:26:01;;;;;;;24.45;10.90;;;;;;;17.90;54.07;101969.94;6000369;23;97143;-73
2022/01/01 17:28:36;;;;;;;32.08;11.63;;;;;;;18.02;53.61;101973.84;6001984;23;98901;-73
2022/01/01 17:31:03;;;;;;;23.60;10.45;;;;;;;18.09;53.50;101966.38;6000275;23;99222;-73
2022/01/01 17:33:40;;;;;;;23.13;10.80;;;;;;;17.94;53.86;101965.28;6000556;23;96664;-72
2022/01/01 17:36:21;;;;;;;;;;;;;;;18.04;53.45;101968.41;6000918;23;96702;-73
2022/01/01 17:41:46;;;;;;;21.25;10.52;;;;;;;18.11;53.22;101968.06;6001436;23;97150;-73
2022/01/01 17:44:13;;;;;;;24.45;10.75;;;;;;;18.20;52.79;101966.72;5999524;23;97013;-75
2022/01/01 17:46:40;;;;;;;25.00;10.52;;;;;;;18.07;53.29;101963.78;6001740;23;98064;-73
2022/01/01 17:49:14;;;;;;;25.48;9.90;;;;;;;18.02;53.38;101970.28;5998908;23;99553;-73
2022/01/01 17:51:44;;;;;;;28.67;11.52;;;;;;;17.87;53.36;101966.53;6001245;23;99166;-72
2022/01/01 17:54:14;;;;;;;28.70;11.07;;;;;;;17.92;53.60;101960.00;6004680;23;96612;-71
2022/01/01 17:56:43;;;;;;;24.73;10.60;;;;;;;17.90;53.36;101959.25;6004685;23;96761;-74
2022/01/01 17:59:10;;;;;;;25.48;10.60;;;;;;;17.87;53.09;101943.31;6001075;23;99803;-72
2022/01/01 18:01:41;;;;;;;22.00;11.10;;;;;;;17.63;54.32;101955.16;6000834;23;98376;-74
2022/01/01 18:04:12;;;;;;;24.70;10.85;;;;;;;17.67;54.29;101955.88;6000846;23;96854;-73
2022/01/01 18:06:39;;;;;;;23.77;11.00;;;;;;;17.83;54.05;101951.56;6001624;23;97092;-73
2022/01/01 18:09:08;;;;;;;25.85;12.65;;;;;;;17.84;54.00;101954.19;6000561;23;98632;-74
2022/01/01 18:11:39;;;;;;;25.42;11.70;;;;;;;17.89;53.70;101957.50;6000842;23;98907;-74
2022/01/01 18:14:08;;;;;;;24.65;11.80;;;;;;;18.01;53.80;101956.06;6001880;23;97038;-73
2022/01/01 18:16:38;;;;;;;31.85;12.75;;;;;;;17.99;53.61;101959.72;6000431;23;96847;-73
2022/01/01 18:19:07;;;;;;;26.02;13.05;;;;;;;17.95;53.83;101958.16;5999877;23;99164;-73
2022/01/01 18:21:38;;;;;;;27.05;12.77;;;;;;;17.74;54.04;101952.84;6001355;23;99680;-72
2022/01/01 18:24:10;;;;;;;25.98;13.15;;;;;;;17.70;54.41;101951.28;6002869;23;96811;-73
2022/01/01 18:26:40;;;;;;;28.80;13.48;;;;;;;17.88;53.97;101953.09;6004885;23;97037;-73
2022/01/01 18:29:07;;;;;;;26.63;12.88;;;;;;;17.83;53.96;101949.78;6004342;23;99727;-74
2022/01/01 18:31:34;;;;;;;23.33;12.55;;;;;;;17.99;53.65;101959.72;6000951;23;98638;-73
2022/01/01 18:34:02;;;;;;;24.58;12.77;;;;;;;17.66;54.04;101957.69;5999962;23;96667;-74
2022/01/01 18:36:29;;;;;;;26.23;12.85;;;;;;;17.66;54.75;101960.34;6000583;23;97480;-74
2022/01/01 18:38:58;;;;;;;23.58;12.02;;;;;;;17.95;53.94;101955.47;5999242;23;100699;-73
2022/01/01 18:41:26;;;;;;;28.33;11.50;;;;;;;17.85;54.02;101953.22;6000478;23;98850;-73
2022/01/01 18:43:54;;;;;;;24.20;11.43;;;;;;;17.80;54.23;101955.25;6001102;23;97283;-73
2022/01/01 18:46:20;;;;;;;29.35;12.13;;;;;;;17.86;54.26;101960.31;6002370;23;96780;-73
2022/01/01 18:48:47;;;;;;;26.20;11.35;;;;;;;17.79;54.40;101958.84;5999606;23;99203;-75
2022/01/01 18:51:19;;;;;;;24.52;10.75;;;;;;;17.79;54.36;101960.66;6002120;23;99164;-72
2022/01/01 18:53:51;;;;;;;26.80;11.07;;;;;;;17.79;54.04;101961.53;6003161;23;97190;-73
2022/01/01 18:56:23;;;;;;;21.60;11.15;;;;;;;17.86;54.00;101954.97;6005117;23;97368;-73
2022/01/01 18:58:50;;;;;;;22.00;9.70;;;;;;;17.88;53.73;101961.09;6006282;23;99141;-74
2022/01/01 19:01:27;;;;;;;20.17;10.00;;;;;;;17.93;53.60;101960.88;6007829;23;99076;-71
2022/01/01 19:03:57;;;;;;;22.85;10.05;;;;;;;17.98;53.36;101969.59;6010538;23;96529;-73
2022/01/01 19:06:25;;;;;;;19.13;9.32;;;;;;;17.78;53.64;101975.84;6013473;23;96708;-73
2022/01/01 19:08:55;;;;;;;26.65;10.00;;;;;;;17.83;53.57;101979.19;6010849;23;99712;-73
2022/01/01 19:11:26;;;;;;;22.67;8.95;;;;;;;17.51;54.31;101983.28;6013356;23;97763;-73
2022/01/01 19:13:56;;;;;;;29.90;9.77;;;;;;;17.71;54.06;101984.22;6018028;23;96538;-75
2022/01/01 19:16:25;;;;;;;19.80;9.15;;;;;;;17.80;53.88;101983.78;6012888;23;96504;-72
2022/01/01 19:18:52;;;;;;;20.50;8.13;;;;;;;17.76;53.71;101982.19;6002903;23;97502;-74
2022/01/01 19:21:20;;;;;;;19.63;8.70;;;;;;;17.76;53.79;101979.53;6003554;23;98026;-73
2022/01/01 19:23:48;;;;;;;21.92;9.23;;;;;;;17.93;53.55;101979.59;6003084;23;96798;-74
2022/01/01 19:26:15;;;;;;;18.05;9.07;;;;;;;17.82;53.61;101977.44;6003407;23;97373;-73
2022/01/01 19:28:45;;;;;;;23.20;9.35;;;;;;;17.86;53.37;101978.16;6000910;23;97692;-74
2022/01/01 19:31:15;;;;;;;23.58;9.13;;;;;;;17.56;54.50;101984.88;6001705;23;99288;-73
2022/01/01 19:33:42;;;;;;;18.95;8.32;;;;;;;17.76;53.70;101966.16;6002154;23;96712;-72
2022/01/01 19:36:09;;;;;;;22.00;9.63;;;;;;;17.95;53.38;101966.16;6000566;23;97396;-74
2022/01/01 19:38:35;;;;;;;20.75;8.63;;;;;;;17.83;53.40;101955.13;6000675;23;98078;-72
2022/01/01 19:41:11;;;;;;;21.75;8.43;;;;;;;17.92;53.36;101943.97;5998889;23;99381;-73
2022/01/01 19:43:50;;;;;;;19.05;7.80;;;;;;;17.81;53.34;101940.06;6001753;23;96803;-73
2022/01/01 19:46:18;;;;;;;19.85;8.02;;;;;;;17.73;53.27;101944.91;6000859;23;96684;-74
2022/01/01 19:48:48;;;;;;;16.42;8.32;;;;;;;17.82;53.44;101950.69;5999998;23;98880;-73
2022/01/01 19:51:15;;;;;;;16.75;7.85;;;;;;;17.91;53.43;101955.63;5998586;23;100080;-74
2022/01/01 19:53:41;;;;;;;18.80;8.43;;;;;;;17.78;53.60;101938.44;5998832;23;97377;-73
2022/01/01 19:56:07;;;;;;;19.88;8.27;;;;;;;17.77;53.37;101935.81;6001029;23;97161;-73
2022/01/01 19:58:34;;;;;;;23.70;8.30;;;;;;;17.68;53.53;101936.22;6001468;23;99234;-73
2022/01/01 20:01:01;;;;;;;15.63;7.90;;;;;;;17.73;53.67;101932.41;6000890;23;97767;-74
2022/01/01 20:03:28;;;;;;;19.48;7.95;;;;;;;17.48;53.88;101919.28;6003308;23;96958;-72
2022/01/01 20:05:54;;;;;;;18.63;8.48;;;;;;;17.45;54.27;101919.44;6002975;23;96745;-74
2022/01/01 20:08:20;;;;;;;17.52;8.30;;;;;;;17.48;54.38;101913.94;6003266;23;99165;-74
2022/01/01 20:10:47;;;;;;;18.27;8.00;;;;;;;17.56;53.92;101905.56;6005057;23;97499;-74
2022/01/01 20:13:13;;;;;;;14.90;7.47;;;;;;;17.38;54.33;101895.72;6007045;23;96936;-74
2022/01/01 20:15:40;;;;;;;20.77;8.43;;;;;;;17.33;54.55;101903.06;6002756;23;96981;-74
2022/01/01 20:18:07;;;;;;;18.00;8.73;;;;;;;17.37;54.44;101904.69;6001320;23;99046;-75
2022/01/01 20:20:34;;;;;;;18.13;8.82;;;;;;;17.41;54.28;101896.44;6001847;23;98761;-73
2022/01/01 20:23:00;;;;;;;15.50;7.88;;;;;;;17.31;54.65;101894.28;6002635;23;96681;-73
2022/01/01 20:25:26;;;;;;;21.85;8.75;;;;;;;17.31;54.60;101899.63;6002518;23;96812;-73
2022/01/01 20:27:53;;;;;;;20.25;8.32;;;;;;;17.37;54.35;101884.19;6001302;23;99441;-73
2022/01/01 20:30:19;;;;;;;15.15;8.00;;;;;;;17.35;54.65;101887.84;6001763;23;99335;-74
2022/01/01 20:32:46;;;;;;;16.42;7.78;;;;;;;17.49;54.28;101894.28;6002228;23;97217;-73
2022/01/01 20:35:14;;;;;;;14.30;7.55;;;;;;;17.34;54.63;101889.66;6002747;23;97345;-72
2022/01/01 20:37:41;;;;;;;18.98;7.90;;;;;;;17.41;54.26;101895.56;6002437;23;99378;-75
2022/01/01 20:40:09;;;;;;;15.98;7.32;;;;;;;17.45;54.34;101897.19;6001833;23;99209;-73
2022/01/01 20:42:35;;;;;;;15.98;6.38;;;;;;;17.51;53.75;101883.53;6001990;23;96790;-75
2022/01/01 20:45:01;;;;;;;19.20;7.05;;;;;;;17.43;54.24;101872.34;6001682;23;97256;-74
2022/01/01 20:47:29;;;;;;;17.70;7.18;;;;;;;17.39;54.20;101860.06;6002193;23;99305;-74
2022/01/01 20:49:58;;;;;;;14.05;7.13;;;;;;;17.31;54.08;101870.22;6002952;23;99047;-74
2022/01/01 20:52:26;;;;;;;16.50;6.88;;;;;;;17.31;54.06;101873.78;6002953;23;97185;-73
2022/01/01 20:54:53;;;;;;;16.38;6.43;;;;;;;17.33;54.43;101869.19;6002854;23;96969;-73
2022/01/01 20:57:20;;;;;;;14.85;6.68;;;;;;;17.30;54.43;101869.34;6004690;23;99569;-74
2022/01/01 20:59:46;;;;;;;14.05;6.30;;;;;;;17.41;53.87;101874.19;6005012;23;99124;-74
2022/01/01 21:02:19;;;;;;;15.82;7.10;;;;;;;17.34;54.33;101864.72;6002871;23;96676;-74
2022/01/01 21:04:51;;;;;;;13.32;6.47;;;;;;;17.39;53.49;101871.59;6004344;23;97314;-73
2022/01/01 21:07:23;;;;;;;15.43;7.00;;;;;;;17.32;53.99;101870.16;6006666;23;99387;-74
2022/01/01 21:09:53;;;;;;;13.65;5.90;;;;;;;17.47;53.32;101874.78;6006460;23;99393;-74
2022/01/01 21:12:21;;;;;;;16.63;7.00;;;;;;;17.40;53.55;101873.34;6007236;23;96966;-74
2022/01/01 21:14:48;;;;;;;15.52;5.97;;;;;;;17.43;53.50;101872.34;6004817;23;96724;-74
2022/01/01 21:17:14;;;;;;;11.55;6.18;;;;;;;17.38;54.07;101861.00;6004044;23;99290;-73
2022/01/01 21:19:42;;;;;;;20.15;7.43;;;;;;;17.43;53.43;101862.50;6003902;23;98820;-73
2022/01/01 21:22:08;;;;;;;13.88;6.80;;;;;;;17.26;53.82;101857.09;6003743;23;96758;-73
2022/01/01 21:24:34;;;;;;;14.77;6.82;;;;;;;17.38;53.59;101859.19;6004374;23;96779;-73
2022/01/01 21:27:03;;;;;;;14.40;5.72;;;;;;;17.25;53.97;101851.81;6003213;23;99587;-74
2022/01/01 21:29:29;;;;;;;16.77;6.82;;;;;;;17.08;54.45;101845.41;6003366;23;99457;-74
2022/01/01 21:31:55;;;;;;;12.40;6.15;;;;;;;17.08;54.61;101847.22;6002913;23;97001;-73
2022/01/01 21:34:23;;;;;;;14.57;6.47;;;;;;;17.16;54.37;101852.22;6004164;23;97465;-74
2022/01/01 21:36:50;;;;;;;14.85;6.10;;;;;;;17.12;54.37;101848.84;6003465;23;98956;-73
2022/01/01 21:39:16;;;;;;;11.52;5.72;;;;;;;17.14;54.36;101845.13;6003734;23;99268;-75
2022/01/01 21:41:43;;;;;;;16.17;6.40;;;;;;;17.30;54.12;101845.31;6001912;23;96670;-75
2022/01/01 22:01:38;;;;;;;;;;;;;;;;;;;;;
2022/01/01 22:14:29;;;;;;;;;;;;;;;;;;;;;
2022/01/01 22:17:52;;;;;;;;;;;;;;;;;;;;;
2022/01/01 22:20:59;;;;;;;;;;;;;;;;;;;;;
2022/01/01 22:23:45;;;;;;;17.65;6.07;;;;;;;16.74;54.14;101773.13;5932112;23;117257;-76
2022/01/01 22:26:49;;;;;;;16.88;5.95;;;;;;;16.57;54.33;101767.63;5949998;23;99338;-79
2022/01/01 22:30:04;;;;;;;;;;;;;;;;;;;;;
2022/01/01 22:36:17;;;;;;;;;;;;;;;;;;;;;
2022/01/01 22:39:06;;;;;;;;;;;;;;;;;;;;;
2022/01/01 22:42:00;;;;;;;19.08;5.50;;;;;;;16.38;54.08;101762.25;5965495;23;128519;-78
2022/01/01 22:44:57;;;;;;;15.30;6.53;;;;;;;16.24;54.49;101761.97;5975472;23;96748;-80
2022/01/01 22:48:24;;;;;;;;;;;;;;;;;;;;;
2022/01/01 23:02:13;;;;;;;;;;;;;;;;;;;;;
2022/01/01 23:12:42;;;;;;;14.55;5.65;;;;;;;15.74;55.39;101717.00;5860282;23;96901;-78
2022/01/01 23:15:30;;;;;;;12.57;4.97;;;;;;;15.74;54.19;101726.78;5930764;23;97312;-78
2022/01/01 23:19:02;;;;;;;;;;;;;;;;;;;;;
2022/01/01 23:21:12;;;;;;;11.27;5.38;;;;;;;15.96;54.34;101743.59;5966638;23;98504;-76
2022/01/01 23:23:45;;;;;;;12.20;4.72;;;;;;;16.03;53.41;101758.41;5975195;23;97063;-76
2022/01/01 23:26:26;;;;;;;13.20;5.00;;;;;;;15.92;53.94;101758.00;5975739;23;96649;-78
2022/01/01 23:29:30;;;;;;;;;;;;;;;;;;;;;
2022/01/01 23:32:30;;;;;;;;;;;;;;;;;;;;;
2022/01/01 23:35:30;;;;;;;;;;;;;;;;;;;;;
2022/01/01 23:38:02;;;;;;;12.95;4.30;;;;;;;15.85;53.27;101724.53;5975266;23;96784;-77
2022/01/01 23:40:41;;;;;;;12.18;4.28;;;;;;;15.93;53.61;101714.44;5975826;23;99253;-77
2022/01/01 23:43:36;;;;;;;;;;;;;;;;;;;;;
2022/01/01 23:46:21;;;;;;;;;;;;;;;;;;;;;
